Impacts TAF Board
For situational awareness. Not to be used for flight planning purposes.
IDs:

KAPF - Naples Muni, FL, US

Issued at 2048 UTC 30 Jun 2022
Updated at 2246 UTC 30 Jun 2022
Potential Impact None Slight Moderate High
Time2153Z 30/23Z 01/00Z 01/01Z 01/02Z 01/03Z 01/04Z 01/05Z 01/06Z 01/07Z 01/08Z 01/09Z 01/10Z 01/11Z>>
Type OBS PRVL PRVL PRVL PRVL PRVL PRVL PRVL PRVL PRVL PRVL PRVL PRVL PRVL
VIS 10 >6 >6 >6 >6 >6 >6 >6 >6 >6 >6 >6 >6 >6
CIG -- -- -- 50 50 50 50 50 50 50 50 50 50 50
Cover FEW SCT SCT BKN BKN BKN BKN BKN BKN BKN BKN BKN BKN BKN
FltCat VFR VFR VFR VFR VFR VFR VFR VFR VFR VFR VFR VFR VFR VFR
WX -- VCTS VCTS -- -- -- -- -- -- -- -- -- -- --
WDir 110 240 240 VRB VRB VRB VRB VRB VRB VRB VRB VRB VRB VRB
WSpd 10 8 8 4 4 4 4 4 4 4 4 4 4 4
WGst -- -- -- -- -- -- -- -- -- -- -- -- -- --
WSHgt -- -- -- -- -- -- -- -- -- -- -- -- -- --
WSDir -- -- -- -- -- -- -- -- -- -- -- -- -- --
WSSpd -- -- -- -- -- -- -- -- -- -- -- -- -- --
Raw TAF
KAPF 302048Z 3021/0118 24008KT P6SM VCTS SCT030CB SCT060
  TEMPO 3021/3022 VRB10G20KT 5SM TSRA BKN025CB
  FM010100 VRB04KT P6SM SCT030 BKN050
  FM011400 11008KT P6SM VCSH SCT030 SCT250


Raw METAR
KAPF 302153Z 11010KT 10SM FEW050 26/23 A3006 RMK AO2 LTG DSNT N AND NW RAB04E15 SLP179 P0000 T02610228
KAPF 302110Z 10015G21KT 10SM VCTS -RA FEW034 BKN047 OVC100 27/24 A3007 RMK AO2 LTG DSNT ALQDS RAB04 P0000 T02670239
KAPF 302053Z 12009G19KT 10SM SCT037 BKN044 OVC100 29/26 A3007 RMK AO2 LTG DSNT NW-E TSE1958 SLP180 60009 T02940256 55007 $
KAPF 302042Z 11008KT 080V140 10SM FEW035 BKN044 BKN100 31/27 A3006 RMK AO2 LTG DSNT N-E TSE1958 T03060267 $
KAPF 302004Z 35004KT 10SM VCTS SCT038 SCT049 32/ A3007 RMK AO2 LTG DSNT NE-SE TSE1958 T0317 $
KAPF 301953Z 33004KT 10SM TS SCT036 BKN047 31/ A3006 RMK AO2 LTG DSNT E AND SE RAB13E48 TSB17E32B37 SLP178 P0009 T0306 $

METAR Board
Radar Display
Forecast Discussion
For situational awareness. Not to be used for flight planning purposes.